sensor_id;sensor_type;location;lat;lon;timestamp;pressure;altitude;pressure_sealevel;temperature
76713;BMP280;65640;43.154;25.658;2023-09-19T00:00:22;101034.09;;;13.86
76713;BMP280;65640;43.154;25.658;2023-09-19T00:02:56;101038.03;;;13.84
76713;BMP280;65640;43.154;25.658;2023-09-19T00:05:26;101039.13;;;13.78
76713;BMP280;65640;43.154;25.658;2023-09-19T00:07:54;101036.84;;;13.71
76713;BMP280;65640;43.154;25.658;2023-09-19T00:10:23;101033.16;;;13.72
76713;BMP280;65640;43.154;25.658;2023-09-19T00:12:53;101030.25;;;13.74
76713;BMP280;65640;43.154;25.658;2023-09-19T00:15:21;101031.84;;;13.75
76713;BMP280;65640;43.154;25.658;2023-09-19T00:17:47;101028.13;;;13.76
76713;BMP280;65640;43.154;25.658;2023-09-19T00:20:13;101021.31;;;13.75
76713;BMP280;65640;43.154;25.658;2023-09-19T00:22:41;101022.66;;;13.67
76713;BMP280;65640;43.154;25.658;2023-09-19T00:25:08;101026.38;;;13.61
76713;BMP280;65640;43.154;25.658;2023-09-19T00:27:35;101025.38;;;13.57
76713;BMP280;65640;43.154;25.658;2023-09-19T00:30:06;101025.63;;;13.56
76713;BMP280;65640;43.154;25.658;2023-09-19T00:32:33;101029.84;;;13.57
76713;BMP280;65640;43.154;25.658;2023-09-19T00:34:59;101030.72;;;13.47
76713;BMP280;65640;43.154;25.658;2023-09-19T00:37:24;101030.97;;;13.46
76713;BMP280;65640;43.154;25.658;2023-09-19T00:39:50;101035.19;;;13.47
76713;BMP280;65640;43.154;25.658;2023-09-19T00:42:21;101030.66;;;13.52
76713;BMP280;65640;43.154;25.658;2023-09-19T00:44:47;101029.13;;;13.46
76713;BMP280;65640;43.154;25.658;2023-09-19T00:47:13;101032.53;;;13.47
76713;BMP280;65640;43.154;25.658;2023-09-19T00:49:46;101034.72;;;13.34
76713;BMP280;65640;43.154;25.658;2023-09-19T00:52:15;101030.06;;;13.26
76713;BMP280;65640;43.154;25.658;2023-09-19T00:54:41;101025.34;;;13.23
76713;BMP280;65640;43.154;25.658;2023-09-19T00:57:06;101022.16;;;13.26
76713;BMP280;65640;43.154;25.658;2023-09-19T00:59:34;101018.00;;;13.20
76713;BMP280;65640;43.154;25.658;2023-09-19T01:02:02;101017.75;;;13.17
76713;BMP280;65640;43.154;25.658;2023-09-19T01:04:27;101012.78;;;13.10
76713;BMP280;65640;43.154;25.658;2023-09-19T01:06:53;101014.63;;;13.10
76713;BMP280;65640;43.154;25.658;2023-09-19T01:09:20;101010.72;;;13.07
76713;BMP280;65640;43.154;25.658;2023-09-19T01:11:48;101018.59;;;13.07
76713;BMP280;65640;43.154;25.658;2023-09-19T01:17:25;101019.69;;;13.06
76713;BMP280;65640;43.154;25.658;2023-09-19T01:21:03;101023.34;;;13.05
76713;BMP280;65640;43.154;25.658;2023-09-19T01:26:11;101006.56;;;12.96
76713;BMP280;65640;43.154;25.658;2023-09-19T01:31:21;101004.97;;;13.00
76713;BMP280;65640;43.154;25.658;2023-09-19T01:33:56;101003.13;;;13.00
76713;BMP280;65640;43.154;25.658;2023-09-19T01:36:29;101006.59;;;12.91
76713;BMP280;65640;43.154;25.658;2023-09-19T01:38:56;100997.13;;;12.90
76713;BMP280;65640;43.154;25.658;2023-09-19T01:41:38;101001.91;;;12.83
76713;BMP280;65640;43.154;25.658;2023-09-19T01:44:06;101001.94;;;12.78
76713;BMP280;65640;43.154;25.658;2023-09-19T01:46:35;100995.88;;;12.82
76713;BMP280;65640;43.154;25.658;2023-09-19T01:49:28;100987.25;;;12.72
76713;BMP280;65640;43.154;25.658;2023-09-19T01:52:12;100990.91;;;12.71
76713;BMP280;65640;43.154;25.658;2023-09-19T01:55:02;100995.13;;;12.72
76713;BMP280;65640;43.154;25.658;2023-09-19T01:57:40;100989.34;;;12.65
76713;BMP280;65640;43.154;25.658;2023-09-19T02:00:10;100988.88;;;12.52
76713;BMP280;65640;43.154;25.658;2023-09-19T02:02:42;100989.84;;;12.67
76713;BMP280;65640;43.154;25.658;2023-09-19T02:05:09;100987.22;;;12.77
76713;BMP280;65640;43.154;25.658;2023-09-19T02:07:35;100990.41;;;12.64
76713;BMP280;65640;43.154;25.658;2023-09-19T02:10:06;100985.16;;;12.64
76713;BMP280;65640;43.154;25.658;2023-09-19T02:12:32;100980.69;;;12.64
76713;BMP280;65640;43.154;25.658;2023-09-19T02:14:58;100973.56;;;12.70
76713;BMP280;65640;43.154;25.658;2023-09-19T02:17:25;100978.88;;;12.60
76713;BMP280;65640;43.154;25.658;2023-09-19T02:19:54;100971.28;;;12.48
76713;BMP280;65640;43.154;25.658;2023-09-19T02:22:24;100974.19;;;12.46
76713;BMP280;65640;43.154;25.658;2023-09-19T02:24:50;100970.50;;;12.47
76713;BMP280;65640;43.154;25.658;2023-09-19T02:27:16;100979.44;;;12.46
76713;BMP280;65640;43.154;25.658;2023-09-19T02:29:43;100977.38;;;12.33
76713;BMP280;65640;43.154;25.658;2023-09-19T02:32:08;100971.09;;;12.29
76713;BMP280;65640;43.154;25.658;2023-09-19T02:34:37;100966.38;;;12.31
76713;BMP280;65640;43.154;25.658;2023-09-19T02:37:07;100961.13;;;12.31
76713;BMP280;65640;43.154;25.658;2023-09-19T02:39:34;100956.13;;;12.35
76713;BMP280;65640;43.154;25.658;2023-09-19T02:41:59;100952.97;;;12.38
76713;BMP280;65640;43.154;25.658;2023-09-19T02:44:25;100961.91;;;12.32
76713;BMP280;65640;43.154;25.658;2023-09-19T02:46:50;100951.66;;;12.25
76713;BMP280;65640;43.154;25.658;2023-09-19T02:49:16;100950.91;;;12.20
76713;BMP280;65640;43.154;25.658;2023-09-19T02:51:43;100949.63;;;12.17
76713;BMP280;65640;43.154;25.658;2023-09-19T02:54:09;100954.31;;;12.20
76713;BMP280;65640;43.154;25.658;2023-09-19T02:56:34;100949.84;;;12.21
76713;BMP280;65640;43.154;25.658;2023-09-19T02:59:00;100960.66;;;12.04
76713;BMP280;65640;43.154;25.658;2023-09-19T03:01:26;100956.97;;;12.05
76713;BMP280;65640;43.154;25.658;2023-09-19T03:03:53;100964.84;;;12.00
76713;BMP280;65640;43.154;25.658;2023-09-19T03:06:19;100968.00;;;12.02
76713;BMP280;65640;43.154;25.658;2023-09-19T03:08:45;100967.75;;;12.08
76713;BMP280;65640;43.154;25.658;2023-09-19T03:11:12;100976.66;;;12.07
76713;BMP280;65640;43.154;25.658;2023-09-19T03:13:40;100970.63;;;12.07
76713;BMP280;65640;43.154;25.658;2023-09-19T03:16:07;100967.25;;;11.91
76713;BMP280;65640;43.154;25.658;2023-09-19T03:18:35;100965.66;;;11.90
76713;BMP280;65640;43.154;25.658;2023-09-19T03:21:01;100964.38;;;11.88
76713;BMP280;65640;43.154;25.658;2023-09-19T03:23:27;100968.03;;;11.92
76713;BMP280;65640;43.154;25.658;2023-09-19T03:25:54;100959.38;;;11.86
76713;BMP280;65640;43.154;25.658;2023-09-19T03:28:20;100973.00;;;11.78
76713;BMP280;65640;43.154;25.658;2023-09-19T03:30:57;100968.56;;;11.79
76713;BMP280;65640;43.154;25.658;2023-09-19T03:33:23;100975.38;;;11.80
76713;BMP280;65640;43.154;25.658;2023-09-19T03:35:52;100986.91;;;11.73
76713;BMP280;65640;43.154;25.658;2023-09-19T03:38:18;100976.19;;;11.80
76713;BMP280;65640;43.154;25.658;2023-09-19T03:40:44;100976.88;;;12.31
76713;BMP280;65640;43.154;25.658;2023-09-19T03:43:10;100974.72;;;12.43
76713;BMP280;65640;43.154;25.658;2023-09-19T03:45:35;100987.59;;;12.50
76713;BMP280;65640;43.154;25.658;2023-09-19T03:48:00;100990.00;;;12.21
76713;BMP280;65640;43.154;25.658;2023-09-19T03:50:26;100986.59;;;12.31
76713;BMP280;65640;43.154;25.658;2023-09-19T03:52:56;100990.84;;;12.17
76713;BMP280;65640;43.154;25.658;2023-09-19T03:55:22;100987.44;;;12.16
76713;BMP280;65640;43.154;25.658;2023-09-19T03:57:50;100986.66;;;12.16
76713;BMP280;65640;43.154;25.658;2023-09-19T04:00:16;100985.53;;;12.27
76713;BMP280;65640;43.154;25.658;2023-09-19T04:02:46;100985.31;;;12.13
76713;BMP280;65640;43.154;25.658;2023-09-19T04:05:11;100989.00;;;12.12
76713;BMP280;65640;43.154;25.658;2023-09-19T04:07:37;100989.78;;;12.12
76713;BMP280;65640;43.154;25.658;2023-09-19T04:10:02;100985.00;;;12.35
76713;BMP280;65640;43.154;25.658;2023-09-19T04:12:28;100990.78;;;12.27
76713;BMP280;65640;43.154;25.658;2023-09-19T04:14:54;100987.69;;;12.04
76713;BMP280;65640;43.154;25.658;2023-09-19T04:17:19;100993.22;;;11.88
76713;BMP280;65640;43.154;25.658;2023-09-19T04:19:45;100989.56;;;11.89
76713;BMP280;65640;43.154;25.658;2023-09-19T04:22:11;100998.19;;;11.84
76713;BMP280;65640;43.154;25.658;2023-09-19T04:24:38;100991.59;;;11.97
76713;BMP280;65640;43.154;25.658;2023-09-19T04:27:04;100991.66;;;11.92
76713;BMP280;65640;43.154;25.658;2023-09-19T04:29:30;100990.81;;;11.96
76713;BMP280;65640;43.154;25.658;2023-09-19T04:31:56;100997.38;;;12.04
76713;BMP280;65640;43.154;25.658;2023-09-19T04:34:24;100983.75;;;12.02
76713;BMP280;65640;43.154;25.658;2023-09-19T04:36:49;100981.13;;;12.17
76713;BMP280;65640;43.154;25.658;2023-09-19T04:39:15;100970.06;;;12.20
76713;BMP280;65640;43.154;25.658;2023-09-19T04:41:41;100975.81;;;12.27
76713;BMP280;65640;43.154;25.658;2023-09-19T04:44:07;100973.19;;;12.37
76713;BMP280;65640;43.154;25.658;2023-09-19T04:46:34;100971.56;;;12.51
76713;BMP280;65640;43.154;25.658;2023-09-19T04:49:00;100974.38;;;12.65
76713;BMP280;65640;43.154;25.658;2023-09-19T04:51:25;100970.44;;;12.73
76713;BMP280;65640;43.154;25.658;2023-09-19T04:53:54;100971.91;;;12.89
76713;BMP280;65640;43.154;25.658;2023-09-19T04:56:19;100970.22;;;13.08
76713;BMP280;65640;43.154;25.658;2023-09-19T04:58:46;100980.16;;;13.16
76713;BMP280;65640;43.154;25.658;2023-09-19T05:01:11;100980.13;;;13.21
76713;BMP280;65640;43.154;25.658;2023-09-19T05:03:39;100979.75;;;13.33
76713;BMP280;65640;43.154;25.658;2023-09-19T05:06:04;100984.66;;;13.50
76713;BMP280;65640;43.154;25.658;2023-09-19T05:08:30;100987.63;;;13.72
76713;BMP280;65640;43.154;25.658;2023-09-19T05:10:56;100987.16;;;13.94
76713;BMP280;65640;43.154;25.658;2023-09-19T05:13:21;100986.72;;;14.10
76713;BMP280;65640;43.154;25.658;2023-09-19T05:15:48;100991.41;;;14.18
76713;BMP280;65640;43.154;25.658;2023-09-19T05:18:15;100982.81;;;14.32
76713;BMP280;65640;43.154;25.658;2023-09-19T05:20:40;100978.66;;;14.44
76713;BMP280;65640;43.154;25.658;2023-09-19T05:23:06;100973.59;;;14.53
76713;BMP280;65640;43.154;25.658;2023-09-19T05:25:39;100967.81;;;14.69
76713;BMP280;65640;43.154;25.658;2023-09-19T05:28:09;100975.56;;;14.85
76713;BMP280;65640;43.154;25.658;2023-09-19T05:30:37;100974.34;;;14.91
76713;BMP280;65640;43.154;25.658;2023-09-19T05:33:04;100970.75;;;15.05
76713;BMP280;65640;43.154;25.658;2023-09-19T05:35:30;100963.88;;;15.23
76713;BMP280;65640;43.154;25.658;2023-09-19T05:37:56;100964.69;;;15.37
76713;BMP280;65640;43.154;25.658;2023-09-19T05:40:24;100966.44;;;15.42
76713;BMP280;65640;43.154;25.658;2023-09-19T05:42:50;100960.16;;;15.70
76713;BMP280;65640;43.154;25.658;2023-09-19T05:45:18;100959.00;;;15.90
76713;BMP280;65640;43.154;25.658;2023-09-19T05:47:51;100965.84;;;16.18
76713;BMP280;65640;43.154;25.658;2023-09-19T05:50:18;100954.53;;;16.40
76713;BMP280;65640;43.154;25.658;2023-09-19T05:52:51;100954.19;;;16.55
76713;BMP280;65640;43.154;25.658;2023-09-19T05:55:17;100952.44;;;16.64
76713;BMP280;65640;43.154;25.658;2023-09-19T05:57:43;100948.66;;;16.79
76713;BMP280;65640;43.154;25.658;2023-09-19T06:00:08;100958.06;;;16.85
76713;BMP280;65640;43.154;25.658;2023-09-19T06:02:36;100958.09;;;16.93
76713;BMP280;65640;43.154;25.658;2023-09-19T06:05:05;100956.66;;;17.10
76713;BMP280;65640;43.154;25.658;2023-09-19T06:07:37;100953.50;;;17.30
76713;BMP280;65640;43.154;25.658;2023-09-19T06:10:06;100940.47;;;17.42
76713;BMP280;65640;43.154;25.658;2023-09-19T06:12:32;100941.78;;;17.53
76713;BMP280;65640;43.154;25.658;2023-09-19T06:14:59;100940.88;;;17.66
76713;BMP280;65640;43.154;25.658;2023-09-19T06:17:25;100945.44;;;17.74
76713;BMP280;65640;43.154;25.658;2023-09-19T06:19:52;100942.69;;;18.05
76713;BMP280;65640;43.154;25.658;2023-09-19T06:22:17;100946.16;;;18.31
76713;BMP280;65640;43.154;25.658;2023-09-19T06:24:46;100946.91;;;18.49
76713;BMP280;65640;43.154;25.658;2023-09-19T06:27:12;100945.38;;;18.48
76713;BMP280;65640;43.154;25.658;2023-09-19T06:29:38;100946.00;;;18.62
76713;BMP280;65640;43.154;25.658;2023-09-19T06:32:10;100942.25;;;18.63
76713;BMP280;65640;43.154;25.658;2023-09-19T06:34:36;100938.66;;;18.59
76713;BMP280;65640;43.154;25.658;2023-09-19T06:37:04;100934.59;;;18.62
76713;BMP280;65640;43.154;25.658;2023-09-19T06:39:31;100938.03;;;18.62
76713;BMP280;65640;43.154;25.658;2023-09-19T06:41:57;100941.00;;;18.69
76713;BMP280;65640;43.154;25.658;2023-09-19T06:44:23;100934.56;;;18.79
76713;BMP280;65640;43.154;25.658;2023-09-19T06:46:50;100937.69;;;18.81
76713;BMP280;65640;43.154;25.658;2023-09-19T06:49:17;100931.88;;;18.96
76713;BMP280;65640;43.154;25.658;2023-09-19T06:51:43;100928.91;;;18.98
76713;BMP280;65640;43.154;25.658;2023-09-19T06:54:09;100938.88;;;19.09
76713;BMP280;65640;43.154;25.658;2023-09-19T06:56:35;100929.91;;;19.31
76713;BMP280;65640;43.154;25.658;2023-09-19T06:59:00;100930.72;;;19.52
76713;BMP280;65640;43.154;25.658;2023-09-19T07:01:27;100930.16;;;19.76
76713;BMP280;65640;43.154;25.658;2023-09-19T07:03:53;100929.63;;;19.82
76713;BMP280;65640;43.154;25.658;2023-09-19T07:06:18;100935.53;;;19.88
76713;BMP280;65640;43.154;25.658;2023-09-19T07:08:44;100940.84;;;20.09
76713;BMP280;65640;43.154;25.658;2023-09-19T07:11:10;100919.78;;;20.36
76713;BMP280;65640;43.154;25.658;2023-09-19T07:13:38;100925.97;;;20.61
76713;BMP280;65640;43.154;25.658;2023-09-19T07:16:04;100921.69;;;20.69
76713;BMP280;65640;43.154;25.658;2023-09-19T07:18:30;100921.81;;;20.84
76713;BMP280;65640;43.154;25.658;2023-09-19T07:20:57;100911.31;;;21.12
76713;BMP280;65640;43.154;25.658;2023-09-19T07:23:26;100916.41;;;21.29
76713;BMP280;65640;43.154;25.658;2023-09-19T07:25:56;100907.94;;;21.52
76713;BMP280;65640;43.154;25.658;2023-09-19T07:28:22;100908.91;;;21.71
76713;BMP280;65640;43.154;25.658;2023-09-19T07:30:47;100904.91;;;21.77
76713;BMP280;65640;43.154;25.658;2023-09-19T07:33:13;100901.84;;;21.91
76713;BMP280;65640;43.154;25.658;2023-09-19T07:35:39;100900.81;;;22.08
76713;BMP280;65640;43.154;25.658;2023-09-19T07:38:07;100887.72;;;22.18
76713;BMP280;65640;43.154;25.658;2023-09-19T07:40:33;100895.69;;;22.30
76713;BMP280;65640;43.154;25.658;2023-09-19T07:42:58;100884.34;;;22.49
76713;BMP280;65640;43.154;25.658;2023-09-19T07:45:28;100881.16;;;22.59
76713;BMP280;65640;43.154;25.658;2023-09-19T07:47:55;100878.06;;;22.73
76713;BMP280;65640;43.154;25.658;2023-09-19T07:50:20;100877.03;;;22.93
76713;BMP280;65640;43.154;25.658;2023-09-19T07:52:47;100873.88;;;23.07
76713;BMP280;65640;43.154;25.658;2023-09-19T07:55:12;100865.00;;;23.18
76713;BMP280;65640;43.154;25.658;2023-09-19T07:57:42;100863.38;;;23.33
76713;BMP280;65640;43.154;25.658;2023-09-19T08:00:07;100864.06;;;23.49
76713;BMP280;65640;43.154;25.658;2023-09-19T08:02:36;100864.41;;;23.63
76713;BMP280;65640;43.154;25.658;2023-09-19T08:05:05;100861.91;;;23.54
76713;BMP280;65640;43.154;25.658;2023-09-19T08:07:34;100861.84;;;23.70
76713;BMP280;65640;43.154;25.658;2023-09-19T08:10:02;100852.53;;;23.83
76713;BMP280;65640;43.154;25.658;2023-09-19T08:12:27;100853.38;;;23.87
76713;BMP280;65640;43.154;25.658;2023-09-19T08:14:53;100852.00;;;23.97
76713;BMP280;65640;43.154;25.658;2023-09-19T08:17:18;100840.16;;;24.21
76713;BMP280;65640;43.154;25.658;2023-09-19T08:19:45;100828.91;;;24.31
76713;BMP280;65640;43.154;25.658;2023-09-19T08:22:11;100832.00;;;24.36
76713;BMP280;65640;43.154;25.658;2023-09-19T08:24:37;100825.66;;;24.44
76713;BMP280;65640;43.154;25.658;2023-09-19T08:27:03;100818.00;;;24.69
76713;BMP280;65640;43.154;25.658;2023-09-19T08:29:30;100819.09;;;24.94
76713;BMP280;65640;43.154;25.658;2023-09-19T08:31:57;100813.78;;;25.01
76713;BMP280;65640;43.154;25.658;2023-09-19T08:34:23;100808.72;;;25.23
76713;BMP280;65640;43.154;25.658;2023-09-19T08:36:50;100807.19;;;25.25
76713;BMP280;65640;43.154;25.658;2023-09-19T08:39:16;100806.50;;;25.32
76713;BMP280;65640;43.154;25.658;2023-09-19T08:41:42;100795.78;;;25.32
76713;BMP280;65640;43.154;25.658;2023-09-19T08:44:07;100795.56;;;25.44
76713;BMP280;65640;43.154;25.658;2023-09-19T08:46:34;100795.06;;;25.35
76713;BMP280;65640;43.154;25.658;2023-09-19T08:49:05;100793.19;;;25.39
76713;BMP280;65640;43.154;25.658;2023-09-19T08:51:41;100799.38;;;25.46
76713;BMP280;65640;43.154;25.658;2023-09-19T08:54:15;100791.75;;;25.45
76713;BMP280;65640;43.154;25.658;2023-09-19T08:56:45;100792.38;;;25.75
76713;BMP280;65640;43.154;25.658;2023-09-19T08:59:12;100782.63;;;26.00
76713;BMP280;65640;43.154;25.658;2023-09-19T09:01:38;100785.03;;;26.16
76713;BMP280;65640;43.154;25.658;2023-09-19T09:04:08;100786.31;;;26.32
76713;BMP280;65640;43.154;25.658;2023-09-19T09:06:34;100779.88;;;26.48
76713;BMP280;65640;43.154;25.658;2023-09-19T09:09:01;100773.75;;;26.51
76713;BMP280;65640;43.154;25.658;2023-09-19T09:11:28;100762.25;;;26.54
76713;BMP280;65640;43.154;25.658;2023-09-19T09:13:53;100766.13;;;26.63
76713;BMP280;65640;43.154;25.658;2023-09-19T09:16:19;100764.31;;;26.85
76713;BMP280;65640;43.154;25.658;2023-09-19T09:18:49;100754.75;;;27.02
76713;BMP280;65640;43.154;25.658;2023-09-19T09:21:27;100759.38;;;27.12
76713;BMP280;65640;43.154;25.658;2023-09-19T09:23:52;100757.88;;;27.25
76713;BMP280;65640;43.154;25.658;2023-09-19T09:26:57;100758.66;;;27.29
76713;BMP280;65640;43.154;25.658;2023-09-19T09:32:27;100758.28;;;27.73
76713;BMP280;65640;43.154;25.658;2023-09-19T09:35:00;100755.16;;;27.95
76713;BMP280;65640;43.154;25.658;2023-09-19T09:37:27;100742.47;;;27.99
76713;BMP280;65640;43.154;25.658;2023-09-19T09:39:57;100740.19;;;27.98
76713;BMP280;65640;43.154;25.658;2023-09-19T09:42:37;100748.25;;;27.98
76713;BMP280;65640;43.154;25.658;2023-09-19T09:45:20;100751.69;;;28.09
76713;BMP280;65640;43.154;25.658;2023-09-19T09:47:58;100745.19;;;27.71
76713;BMP280;65640;43.154;25.658;2023-09-19T09:50:35;100744.03;;;27.72
76713;BMP280;65640;43.154;25.658;2023-09-19T09:53:23;100745.56;;;27.77
76713;BMP280;65640;43.154;25.658;2023-09-19T09:56:08;100741.72;;;27.92
76713;BMP280;65640;43.154;25.658;2023-09-19T09:58:51;100741.34;;;27.86
76713;BMP280;65640;43.154;25.658;2023-09-19T10:01:21;100732.47;;;27.93
76713;BMP280;65640;43.154;25.658;2023-09-19T10:03:57;100725.53;;;28.13
76713;BMP280;65640;43.154;25.658;2023-09-19T10:06:22;100722.06;;;28.02
76713;BMP280;65640;43.154;25.658;2023-09-19T10:11:30;100722.78;;;28.24
76713;BMP280;65640;43.154;25.658;2023-09-19T10:13:56;100723.16;;;28.29
76713;BMP280;65640;43.154;25.658;2023-09-19T10:16:23;100717.31;;;28.48
76713;BMP280;65640;43.154;25.658;2023-09-19T10:18:51;100712.09;;;28.82
76713;BMP280;65640;43.154;25.658;2023-09-19T10:21:19;100712.84;;;28.83
76713;BMP280;65640;43.154;25.658;2023-09-19T10:23:48;100718.44;;;28.58
76713;BMP280;65640;43.154;25.658;2023-09-19T10:26:17;100716.97;;;28.32
76713;BMP280;65640;43.154;25.658;2023-09-19T10:28:42;100722.84;;;28.09
76713;BMP280;65640;43.154;25.658;2023-09-19T10:31:10;100714.34;;;28.18
76713;BMP280;65640;43.154;25.658;2023-09-19T10:33:40;100710.09;;;28.21
76713;BMP280;65640;43.154;25.658;2023-09-19T10:36:06;100696.19;;;28.33
76713;BMP280;65640;43.154;25.658;2023-09-19T10:38:35;100699.81;;;28.78
76713;BMP280;65640;43.154;25.658;2023-09-19T10:41:01;100699.19;;;29.07
76713;BMP280;65640;43.154;25.658;2023-09-19T10:43:32;100699.19;;;29.11
76713;BMP280;65640;43.154;25.658;2023-09-19T10:46:02;100697.09;;;28.81
76713;BMP280;65640;43.154;25.658;2023-09-19T10:48:31;100698.13;;;28.36
76713;BMP280;65640;43.154;25.658;2023-09-19T10:51:20;100694.28;;;28.23
76713;BMP280;65640;43.154;25.658;2023-09-19T10:54:11;100686.56;;;28.35
76713;BMP280;65640;43.154;25.658;2023-09-19T10:56:42;100685.31;;;28.57
76713;BMP280;65640;43.154;25.658;2023-09-19T10:59:16;100693.16;;;28.93
76713;BMP280;65640;43.154;25.658;2023-09-19T11:01:50;100692.56;;;29.22
76713;BMP280;65640;43.154;25.658;2023-09-19T11:07:11;100694.16;;;29.57
76713;BMP280;65640;43.154;25.658;2023-09-19T11:09:54;100693.03;;;29.51
76713;BMP280;65640;43.154;25.658;2023-09-19T11:15:03;100687.13;;;29.67
76713;BMP280;65640;43.154;25.658;2023-09-19T11:17:34;100682.78;;;29.73
76713;BMP280;65640;43.154;25.658;2023-09-19T11:36:16;100678.28;;;29.25
76713;BMP280;65640;43.154;25.658;2023-09-19T11:43:54;100661.19;;;30.07
76713;BMP280;65640;43.154;25.658;2023-09-19T11:46:24;100663.50;;;30.35
76713;BMP280;65640;43.154;25.658;2023-09-19T11:48:53;100652.06;;;30.50
76713;BMP280;65640;43.154;25.658;2023-09-19T11:51:23;100647.06;;;30.49
76713;BMP280;65640;43.154;25.658;2023-09-19T11:54:03;100643.50;;;30.29
76713;BMP280;65640;43.154;25.658;2023-09-19T11:56:28;100646.25;;;29.95
76713;BMP280;65640;43.154;25.658;2023-09-19T11:58:56;100646.31;;;29.91
76713;BMP280;65640;43.154;25.658;2023-09-19T12:01:32;100649.50;;;29.83
76713;BMP280;65640;43.154;25.658;2023-09-19T12:04:00;100639.91;;;29.78
76713;BMP280;65640;43.154;25.658;2023-09-19T12:06:26;100636.22;;;29.65
76713;BMP280;65640;43.154;25.658;2023-09-19T12:08:52;100638.06;;;29.72
76713;BMP280;65640;43.154;25.658;2023-09-19T12:11:23;100632.22;;;29.73
76713;BMP280;65640;43.154;25.658;2023-09-19T12:13:48;100632.50;;;29.86
76713;BMP280;65640;43.154;25.658;2023-09-19T12:16:20;100630.53;;;29.90
76713;BMP280;65640;43.154;25.658;2023-09-19T12:18:50;100629.28;;;29.94
76713;BMP280;65640;43.154;25.658;2023-09-19T12:21:25;100631.41;;;30.10
76713;BMP280;65640;43.154;25.658;2023-09-19T12:26:27;100616.97;;;30.47
76713;BMP280;65640;43.154;25.658;2023-09-19T12:28:54;100616.19;;;30.73
76713;BMP280;65640;43.154;25.658;2023-09-19T12:31:21;100617.84;;;30.87
76713;BMP280;65640;43.154;25.658;2023-09-19T12:33:53;100610.63;;;31.03
76713;BMP280;65640;43.154;25.658;2023-09-19T12:36:22;100613.16;;;30.91
76713;BMP280;65640;43.154;25.658;2023-09-19T12:38:54;100614.16;;;31.00
76713;BMP280;65640;43.154;25.658;2023-09-19T12:41:20;100619.78;;;30.86
76713;BMP280;65640;43.154;25.658;2023-09-19T12:43:47;100620.63;;;30.37
76713;BMP280;65640;43.154;25.658;2023-09-19T12:46:13;100619.66;;;30.24
76713;BMP280;65640;43.154;25.658;2023-09-19T12:48:40;100621.53;;;29.96
76713;BMP280;65640;43.154;25.658;2023-09-19T12:51:12;100618.13;;;29.59
76713;BMP280;65640;43.154;25.658;2023-09-19T12:56:13;100622.13;;;29.10
76713;BMP280;65640;43.154;25.658;2023-09-19T12:58:54;100613.97;;;29.17
76713;BMP280;65640;43.154;25.658;2023-09-19T13:01:20;100620.75;;;29.32
76713;BMP280;65640;43.154;25.658;2023-09-19T13:03:46;100610.09;;;29.18
76713;BMP280;65640;43.154;25.658;2023-09-19T13:06:11;100615.63;;;29.04
76713;BMP280;65640;43.154;25.658;2023-09-19T13:08:39;100611.63;;;29.19
76713;BMP280;65640;43.154;25.658;2023-09-19T13:11:15;100605.22;;;29.43
76713;BMP280;65640;43.154;25.658;2023-09-19T13:16:18;100611.88;;;29.35
76713;BMP280;65640;43.154;25.658;2023-09-19T13:18:48;100606.59;;;29.21
76713;BMP280;65640;43.154;25.658;2023-09-19T13:21:28;100605.41;;;29.25
76713;BMP280;65640;43.154;25.658;2023-09-19T13:26:45;100603.38;;;28.96
76713;BMP280;65640;43.154;25.658;2023-09-19T13:29:11;100608.63;;;29.10
76713;BMP280;65640;43.154;25.658;2023-09-19T13:31:36;100601.47;;;29.33
76713;BMP280;65640;43.154;25.658;2023-09-19T13:34:06;100598.91;;;29.57
76713;BMP280;65640;43.154;25.658;2023-09-19T13:36:31;100602.53;;;29.73
76713;BMP280;65640;43.154;25.658;2023-09-19T13:38:57;100593.38;;;29.97
76713;BMP280;65640;43.154;25.658;2023-09-19T13:41:24;100593.69;;;30.03
76713;BMP280;65640;43.154;25.658;2023-09-19T13:43:49;100593.53;;;30.14
76713;BMP280;65640;43.154;25.658;2023-09-19T13:46:15;100603.56;;;30.13
76713;BMP280;65640;43.154;25.658;2023-09-19T13:48:42;100588.72;;;29.98
76713;BMP280;65640;43.154;25.658;2023-09-19T13:51:08;100594.44;;;30.04
76713;BMP280;65640;43.154;25.658;2023-09-19T13:53:33;100596.03;;;30.01
76713;BMP280;65640;43.154;25.658;2023-09-19T13:55:59;100589.13;;;29.96
76713;BMP280;65640;43.154;25.658;2023-09-19T13:58:25;100583.09;;;29.89
76713;BMP280;65640;43.154;25.658;2023-09-19T14:00:52;100581.16;;;29.89
76713;BMP280;65640;43.154;25.658;2023-09-19T14:03:20;100581.56;;;29.84
76713;BMP280;65640;43.154;25.658;2023-09-19T14:05:46;100568.75;;;29.62
76713;BMP280;65640;43.154;25.658;2023-09-19T14:08:13;100573.13;;;29.52
76713;BMP280;65640;43.154;25.658;2023-09-19T14:10:38;100579.84;;;29.37
76713;BMP280;65640;43.154;25.658;2023-09-19T14:13:04;100574.44;;;29.37
76713;BMP280;65640;43.154;25.658;2023-09-19T14:15:29;100574.31;;;29.48
76713;BMP280;65640;43.154;25.658;2023-09-19T14:17:56;100580.03;;;29.53
76713;BMP280;65640;43.154;25.658;2023-09-19T14:20:22;100573.75;;;29.63
76713;BMP280;65640;43.154;25.658;2023-09-19T14:22:48;100572.44;;;29.75
76713;BMP280;65640;43.154;25.658;2023-09-19T14:25:13;100577.72;;;29.85
76713;BMP280;65640;43.154;25.658;2023-09-19T14:27:39;100578.34;;;29.66
76713;BMP280;65640;43.154;25.658;2023-09-19T14:30:06;100580.19;;;29.39
76713;BMP280;65640;43.154;25.658;2023-09-19T14:32:31;100572.72;;;29.20
76713;BMP280;65640;43.154;25.658;2023-09-19T14:34:57;100584.09;;;28.97
76713;BMP280;65640;43.154;25.658;2023-09-19T14:37:22;100584.19;;;28.83
76713;BMP280;65640;43.154;25.658;2023-09-19T14:39:47;100581.19;;;28.78
76713;BMP280;65640;43.154;25.658;2023-09-19T14:42:13;100582.84;;;28.61